createdAt,value
2022-10-14T00:00:52.712Z,17.17
2022-10-14T00:03:55.895Z,19.73
2022-10-14T00:06:59.747Z,15.43
2022-10-14T00:10:02.245Z,14.68
2022-10-14T00:13:06.113Z,18.75
2022-10-14T00:16:15.871Z,17.05
2022-10-14T00:19:19.713Z,16.92
2022-10-14T00:22:23.528Z,17.50
2022-10-14T00:25:26.828Z,15.45
2022-10-14T00:28:29.384Z,15.68
2022-10-14T00:31:32.451Z,19.33
2022-10-14T00:34:35.481Z,19.83
2022-10-14T00:37:39.293Z,12.13
2022-10-14T00:40:41.774Z,19.38
2022-10-14T00:43:57.385Z,24.40
2022-10-14T00:46:59.879Z,24.10
2022-10-14T00:50:02.926Z,27.80
2022-10-14T00:53:06.967Z,25.25
2022-10-14T00:56:10.682Z,28.55
2022-10-14T00:59:13.643Z,20.98
2022-10-14T01:02:16.126Z,23.13
2022-10-14T01:05:21.540Z,26.05
2022-10-14T01:08:31.735Z,24.80
2022-10-14T01:11:41.675Z,25.15
2022-10-14T01:14:55.796Z,24.55
2022-10-14T01:18:08.627Z,26.40
2022-10-14T01:21:20.739Z,21.83
2022-10-14T01:24:39.503Z,18.40
2022-10-14T01:28:00.626Z,18.35
2022-10-14T01:31:08.084Z,22.48
2022-10-14T01:34:12.233Z,18.50
2022-10-14T01:37:19.277Z,19.02
2022-10-14T01:40:30.246Z,23.13
2022-10-14T01:43:35.277Z,20.42
2022-10-14T01:46:42.556Z,19.52
2022-10-14T01:49:48.871Z,22.63
2022-10-14T01:52:55.650Z,20.58
2022-10-14T01:55:59.637Z,20.38
2022-10-14T01:59:04.110Z,20.45
2022-10-14T02:02:08.164Z,21.65
2022-10-14T02:05:18.432Z,23.85
2022-10-14T02:08:29.888Z,27.30
2022-10-14T02:11:39.277Z,26.73
2022-10-14T02:14:51.037Z,26.35
2022-10-14T02:18:00.698Z,32.42
2022-10-14T02:21:11.533Z,33.88
2022-10-14T02:24:20.786Z,31.95
2022-10-14T02:27:26.840Z,37.85
2022-10-14T02:30:33.539Z,38.70
2022-10-14T02:33:42.385Z,33.80
2022-10-14T02:36:46.468Z,31.88
2022-10-14T02:39:54.910Z,36.50
2022-10-14T02:42:57.459Z,38.15
2022-10-14T02:46:02.648Z,38.97
2022-10-14T02:49:06.459Z,35.75
2022-10-14T02:52:08.938Z,39.60
2022-10-14T02:55:11.501Z,33.97
2022-10-14T02:58:13.954Z,30.45
2022-10-14T03:01:16.403Z,35.13
2022-10-14T03:04:20.158Z,29.17
2022-10-14T03:07:22.645Z,31.58
2022-10-14T03:10:25.099Z,30.95
2022-10-14T03:13:27.555Z,30.33
2022-10-14T03:16:29.990Z,32.10
2022-10-14T03:19:33.770Z,31.35
2022-10-14T03:22:36.472Z,31.80
2022-10-14T03:25:39.061Z,30.40
2022-10-14T03:28:41.516Z,29.40
2022-10-14T03:31:44.059Z,27.05
2022-10-14T03:34:47.928Z,27.42
2022-10-14T03:37:50.523Z,27.95
2022-10-14T03:40:52.979Z,26.92
2022-10-14T03:43:55.403Z,31.17
2022-10-14T03:46:58.119Z,23.73
2022-10-14T03:50:02.994Z,30.90
2022-10-14T03:53:05.635Z,28.05
2022-10-14T03:56:10.029Z,31.20
2022-10-14T03:59:12.487Z,25.67
2022-10-14T04:02:14.943Z,29.20
2022-10-14T04:05:18.709Z,26.23
2022-10-14T04:08:21.219Z,29.13
2022-10-14T04:11:23.673Z,30.30
2022-10-14T04:14:27.211Z,28.52
2022-10-14T04:17:29.654Z,25.85
2022-10-14T04:20:33.457Z,23.13
2022-10-14T04:23:36.819Z,25.00
2022-10-14T04:26:39.385Z,26.40
2022-10-14T04:29:41.847Z,24.08
2022-10-14T04:32:44.265Z,23.92
2022-10-14T04:35:48.250Z,30.85
2022-10-14T04:38:50.690Z,33.92
2022-10-14T04:41:53.173Z,46.55
2022-10-14T04:44:55.665Z,19.58
2022-10-14T04:47:58.210Z,32.28
2022-10-14T04:51:01.989Z,28.38
2022-10-14T04:54:04.797Z,24.77
2022-10-14T04:57:07.593Z,28.77
2022-10-14T05:00:11.771Z,27.08
2022-10-14T05:03:14.203Z,27.75
2022-10-14T05:06:18.016Z,26.48
2022-10-14T05:09:20.575Z,19.98
2022-10-14T05:12:23.654Z,21.20
2022-10-14T05:15:26.303Z,24.27
2022-10-14T05:18:28.731Z,25.67
2022-10-14T05:21:32.508Z,23.13
2022-10-14T05:24:35.014Z,25.60
2022-10-14T05:27:37.434Z,24.70
2022-10-14T05:30:39.876Z,22.40
2022-10-14T05:33:42.329Z,23.90
2022-10-14T05:36:46.406Z,23.70
2022-10-14T05:39:48.853Z,24.73
2022-10-14T05:42:51.295Z,21.23
2022-10-14T05:45:53.751Z,18.70
2022-10-14T05:48:57.077Z,22.02
2022-10-14T05:52:00.859Z,15.55
2022-10-14T05:55:04.066Z,16.10
2022-10-14T05:58:06.507Z,18.40
2022-10-14T06:01:10.966Z,26.17
2022-10-14T06:04:19.297Z,31.80
2022-10-14T06:07:23.198Z,29.88
2022-10-14T06:10:25.655Z,32.75
2022-10-14T06:13:28.135Z,30.67
2022-10-14T06:16:30.584Z,33.17
2022-10-14T06:19:33.599Z,32.45
2022-10-14T06:22:37.344Z,30.98
2022-10-14T06:25:40.227Z,30.67
2022-10-14T06:28:42.817Z,26.30
2022-10-14T06:31:45.313Z,25.63
2022-10-14T06:34:47.746Z,22.85
2022-10-14T06:37:51.506Z,28.58
2022-10-14T06:40:55.006Z,30.10
2022-10-14T06:43:57.747Z,24.02
2022-10-14T06:47:00.200Z,23.35
2022-10-14T06:50:02.669Z,25.67
2022-10-14T06:53:06.647Z,27.38
2022-10-14T06:56:11.880Z,23.10
2022-10-14T06:59:14.355Z,27.05
2022-10-14T07:02:16.935Z,28.73
2022-10-14T07:05:19.507Z,29.30
2022-10-14T07:08:23.420Z,29.38
2022-10-14T07:11:26.007Z,28.48
2022-10-14T07:14:28.634Z,28.30
2022-10-14T07:17:31.179Z,27.55
2022-10-14T07:20:34.791Z,32.60
2022-10-14T07:23:38.689Z,24.05
2022-10-14T07:26:41.168Z,30.08
2022-10-14T07:29:43.968Z,24.55
2022-10-14T07:32:46.569Z,28.58
2022-10-14T07:35:49.017Z,28.75
2022-10-14T07:38:52.780Z,28.17
2022-10-14T07:41:55.901Z,28.42
2022-10-14T07:44:58.441Z,28.65
2022-10-14T07:48:00.924Z,28.98
2022-10-14T07:51:03.844Z,29.02
2022-10-14T07:54:10.306Z,30.05
2022-10-14T07:57:13.035Z,27.38
2022-10-14T08:00:15.657Z,28.17
2022-10-14T08:03:19.446Z,25.58
2022-10-14T08:06:22.045Z,30.05
2022-10-14T08:12:29.276Z,25.95
2022-10-14T08:15:34.723Z,28.55
2022-10-14T08:18:37.241Z,25.52
2022-10-14T08:21:39.682Z,23.52
2022-10-14T08:24:44.345Z,27.77
2022-10-14T08:27:52.494Z,28.52
2022-10-14T08:30:54.949Z,27.25
2022-10-14T08:33:58.221Z,23.42
2022-10-14T08:37:02.272Z,20.23
2022-10-14T08:40:07.601Z,27.50
2022-10-14T08:43:19.506Z,30.20
2022-10-14T08:49:33.396Z,25.15
2022-10-14T08:52:40.700Z,25.77
2022-10-14T08:55:47.548Z,24.23
2022-10-14T08:58:51.876Z,23.55
2022-10-14T09:01:58.608Z,25.05
2022-10-14T09:05:02.233Z,23.45
2022-10-14T09:08:06.238Z,28.60
2022-10-14T09:11:14.449Z,26.38
2022-10-14T09:14:20.812Z,26.92
2022-10-14T09:17:27.848Z,22.88
2022-10-14T09:20:30.425Z,22.13
2022-10-14T09:23:32.894Z,17.95
2022-10-14T09:26:42.209Z,22.48
2022-10-14T09:29:49.606Z,22.15
2022-10-14T09:32:55.181Z,21.45
2022-10-14T09:39:05.370Z,20.65
2022-10-14T09:42:16.578Z,18.67
2022-10-14T09:45:22.785Z,20.73
2022-10-14T09:48:37.704Z,21.90
2022-10-14T09:51:43.597Z,16.88
2022-10-14T09:54:46.283Z,21.48
2022-10-14T09:57:59.485Z,20.17
2022-10-14T10:01:03.478Z,20.95
2022-10-14T10:04:27.325Z,19.58
2022-10-14T10:07:33.644Z,16.55
2022-10-14T10:10:36.191Z,20.92
2022-10-14T10:13:44.877Z,18.77
2022-10-14T10:16:48.797Z,15.43
2022-10-14T10:19:55.337Z,14.20
2022-10-14T10:22:59.934Z,13.43
2022-10-14T10:26:21.491Z,17.20
2022-10-14T10:29:29.067Z,11.70
2022-10-14T10:32:38.889Z,13.88
2022-10-14T10:35:55.863Z,14.98
2022-10-14T10:39:02.625Z,19.05
2022-10-14T10:42:15.962Z,12.48
2022-10-14T10:45:36.774Z,10.38
2022-10-14T10:48:46.203Z,11.70
2022-10-14T10:51:55.351Z,12.07
2022-10-14T10:55:10.244Z,12.40
2022-10-14T10:58:27.622Z,10.38
2022-10-14T11:01:43.740Z,15.13
2022-10-14T11:04:51.580Z,12.80
2022-10-14T11:08:16.235Z,10.27
2022-10-14T11:11:43.669Z,12.82
2022-10-14T11:15:26.190Z,10.07
2022-10-14T11:18:39.078Z,12.82
2022-10-14T11:21:48.220Z,13.82
2022-10-14T11:25:03.646Z,12.10
2022-10-14T11:28:11.945Z,11.15
2022-10-14T11:31:26.827Z,9.07
2022-10-14T11:34:43.764Z,12.73
2022-10-14T11:37:58.527Z,11.48
2022-10-14T11:41:07.069Z,10.40
2022-10-14T11:44:16.589Z,16.83
2022-10-14T11:47:24.740Z,14.07
2022-10-14T11:50:32.881Z,11.48
2022-10-14T11:53:44.382Z,9.82
2022-10-14T11:56:53.954Z,12.40
2022-10-14T12:00:17.755Z,10.85
2022-10-14T12:03:37.877Z,13.15
2022-10-14T12:06:45.715Z,11.60
2022-10-14T12:09:57.376Z,8.88
2022-10-14T12:13:07.801Z,10.23
2022-10-14T12:16:14.952Z,12.00
2022-10-14T12:19:23.555Z,7.47
2022-10-14T12:22:30.190Z,9.85
2022-10-14T12:25:40.434Z,9.68
2022-10-14T12:28:43.942Z,12.35
2022-10-14T12:31:51.690Z,13.18
2022-10-14T12:34:55.528Z,9.27
2022-10-14T12:38:04.556Z,9.73
2022-10-14T12:41:39.346Z,9.10
2022-10-14T12:44:48.662Z,11.88
2022-10-14T12:48:06.869Z,12.95
2022-10-14T12:51:13.291Z,13.40
2022-10-14T12:54:17.442Z,11.50
2022-10-14T12:57:27.786Z,14.20
2022-10-14T13:00:33.032Z,9.20
2022-10-14T13:03:46.559Z,11.45
2022-10-14T13:07:39.812Z,11.07
2022-10-14T13:10:50.447Z,17.65
2022-10-14T13:14:02.705Z,11.10
2022-10-14T13:17:43.291Z,11.80
2022-10-14T13:20:52.362Z,11.40
2022-10-14T13:23:55.755Z,11.15
2022-10-14T13:27:08.783Z,13.48
2022-10-14T13:30:19.574Z,17.52
2022-10-14T13:33:27.490Z,16.02
2022-10-14T13:36:36.558Z,16.58
2022-10-14T13:39:39.027Z,12.38
2022-10-14T13:42:43.234Z,11.38
2022-10-14T13:45:51.591Z,12.20
2022-10-14T13:48:57.740Z,15.98
2022-10-14T13:52:04.354Z,15.35
2022-10-14T13:55:14.754Z,12.88
2022-10-14T13:58:20.586Z,15.43
2022-10-14T14:01:25.736Z,12.93
2022-10-14T14:04:31.579Z,14.15
2022-10-14T14:08:08.482Z,13.20
2022-10-14T14:11:16.112Z,15.98
2022-10-14T14:14:23.932Z,14.45
2022-10-14T14:17:27.589Z,14.82
2022-10-14T14:20:33.868Z,11.65
2022-10-14T14:23:36.414Z,14.73
2022-10-14T14:26:40.461Z,35.25
2022-10-14T14:29:46.962Z,14.90
2022-10-14T14:32:49.607Z,12.90
2022-10-14T14:35:55.837Z,13.05
2022-10-14T14:39:01.187Z,18.38
2022-10-14T14:42:03.605Z,12.38
2022-10-14T14:45:13.907Z,10.65
2022-10-14T14:48:17.606Z,16.45
2022-10-14T14:51:20.403Z,10.07
2022-10-14T14:54:24.421Z,10.07
2022-10-14T14:57:26.908Z,10.63
2022-10-14T15:00:31.141Z,14.98
2022-10-14T15:04:13.163Z,10.80
2022-10-14T15:07:21.353Z,11.10
2022-10-14T15:10:27.721Z,11.00
2022-10-14T15:13:45.975Z,9.23
2022-10-14T15:16:54.276Z,10.15
2022-10-14T15:19:58.097Z,10.57
2022-10-14T15:23:00.674Z,10.23
2022-10-14T15:26:03.104Z,7.70
2022-10-14T15:29:18.636Z,10.27
2022-10-14T15:32:22.991Z,8.48
2022-10-14T15:35:26.459Z,12.05
2022-10-14T15:41:38.622Z,10.75
2022-10-14T15:44:41.156Z,9.05
2022-10-14T15:47:45.039Z,9.65
2022-10-14T15:50:48.617Z,8.95
2022-10-14T15:53:51.788Z,11.80
2022-10-14T15:59:59.061Z,10.07
2022-10-14T16:03:03.747Z,13.20
2022-10-14T16:06:06.687Z,9.10
2022-10-14T16:09:09.295Z,9.05
2022-10-14T16:12:13.734Z,10.45
2022-10-14T16:15:33.245Z,11.07
2022-10-14T16:18:37.032Z,12.10
2022-10-14T16:21:40.281Z,60.95
2022-10-14T16:24:42.731Z,39.70
2022-10-14T16:27:45.221Z,15.75
2022-10-14T16:30:50.389Z,10.48
2022-10-14T16:33:55.507Z,11.40
2022-10-14T16:36:57.928Z,23.42
2022-10-14T16:40:00.554Z,11.30
2022-10-14T16:43:03.054Z,11.57
2022-10-14T16:46:09.336Z,9.25
2022-10-14T16:49:15.851Z,8.48
2022-10-14T16:52:20.023Z,15.02
2022-10-14T16:55:23.937Z,11.52
2022-10-14T16:58:27.711Z,9.25
2022-10-14T17:01:30.456Z,10.73
2022-10-14T17:04:34.282Z,11.73
2022-10-14T17:07:36.761Z,13.63
2022-10-14T17:10:39.532Z,11.15
2022-10-14T17:13:41.942Z,17.50
2022-10-14T17:16:46.127Z,16.83
2022-10-14T17:19:50.665Z,14.60
2022-10-14T17:22:53.094Z,14.80
2022-10-14T17:25:55.552Z,15.50
2022-10-14T17:28:58.866Z,16.92
2022-10-14T17:32:01.339Z,14.75
2022-10-14T17:35:06.220Z,13.93
2022-10-14T17:38:09.419Z,14.15
2022-10-14T17:41:13.696Z,16.02
2022-10-14T17:44:16.168Z,16.48
2022-10-14T17:47:18.817Z,14.75
2022-10-14T17:50:22.834Z,17.15
2022-10-14T17:53:26.040Z,11.90
2022-10-14T17:56:30.624Z,13.30
2022-10-14T17:59:33.087Z,16.63
2022-10-14T18:02:35.563Z,11.82
2022-10-14T18:05:43.973Z,11.90
2022-10-14T18:08:52.391Z,13.23
2022-10-14T18:12:10.655Z,13.75
2022-10-14T18:15:13.310Z,14.05
2022-10-14T18:18:15.837Z,13.23
2022-10-14T18:21:20.138Z,14.45
2022-10-14T18:24:22.931Z,11.23
2022-10-14T18:27:25.768Z,14.75
2022-10-14T18:30:28.319Z,12.05
2022-10-14T18:33:32.976Z,12.50
2022-10-14T18:36:36.810Z,10.93
2022-10-14T18:39:39.306Z,14.02
2022-10-14T18:42:41.729Z,13.98
2022-10-14T18:45:44.154Z,11.75
2022-10-14T18:48:48.248Z,9.77
2022-10-14T18:51:53.429Z,11.63
2022-10-14T18:54:55.874Z,11.90
2022-10-14T18:57:58.298Z,12.30
2022-10-14T19:01:01.265Z,11.30
2022-10-14T19:04:05.682Z,9.77
2022-10-14T19:07:09.445Z,11.82
2022-10-14T19:10:11.915Z,9.07
2022-10-14T19:13:14.344Z,10.27
2022-10-14T19:16:18.654Z,11.77
2022-10-14T19:19:21.190Z,12.05
2022-10-14T19:22:25.233Z,11.07
2022-10-14T19:25:28.092Z,11.30
2022-10-14T19:28:30.582Z,11.23
2022-10-14T19:31:35.395Z,10.52
2022-10-14T19:34:38.041Z,10.05
2022-10-14T19:37:41.781Z,9.07
2022-10-14T19:40:44.232Z,11.02
2022-10-14T19:43:46.782Z,9.98
2022-10-14T19:46:49.266Z,9.80
2022-10-14T19:49:51.706Z,9.50
2022-10-14T19:52:55.458Z,9.98
2022-10-14T19:56:03.754Z,9.82
2022-10-14T19:59:06.255Z,13.85
2022-10-14T20:02:09.517Z,8.88
2022-10-14T20:05:11.939Z,8.90
2022-10-14T20:11:24.813Z,8.82
2022-10-14T20:14:27.948Z,10.43
2022-10-14T20:17:30.518Z,8.35
2022-10-14T20:20:33.366Z,8.88
2022-10-14T20:23:38.951Z,10.80
2022-10-14T20:26:41.503Z,12.55
2022-10-14T20:29:44.038Z,12.93
2022-10-14T20:32:46.553Z,10.63
2022-10-14T20:35:49.091Z,11.18
2022-10-14T20:38:52.890Z,11.80
2022-10-14T20:41:55.353Z,9.25
2022-10-14T20:44:57.860Z,10.80
2022-10-14T20:48:00.285Z,9.02
2022-10-14T20:51:05.587Z,12.27
2022-10-14T20:54:11.747Z,10.10
2022-10-14T20:57:14.486Z,10.75
2022-10-14T21:00:17.419Z,9.90
2022-10-14T21:03:19.856Z,10.55
2022-10-14T21:06:24.897Z,13.98
2022-10-14T21:09:29.610Z,10.98
2022-10-14T21:12:32.040Z,10.07
2022-10-14T21:15:34.510Z,9.18
2022-10-14T21:18:36.962Z,8.68
2022-10-14T21:21:43.151Z,10.80
2022-10-14T21:24:47.072Z,11.40
2022-10-14T21:27:49.491Z,10.77
2022-10-14T21:30:52.182Z,12.93
2022-10-14T21:34:05.047Z,10.30
2022-10-14T21:37:08.133Z,11.55
2022-10-14T21:40:12.975Z,11.45
2022-10-14T21:43:15.418Z,11.38
2022-10-14T21:46:18.225Z,13.90
2022-10-14T21:49:20.751Z,14.85
2022-10-14T21:52:23.986Z,13.82
2022-10-14T21:55:28.030Z,14.50
2022-10-14T21:58:31.541Z,12.35
2022-10-14T22:01:34.720Z,11.93
2022-10-14T22:04:38.395Z,12.75
2022-10-14T22:07:40.933Z,16.23
2022-10-14T22:10:45.399Z,19.73
2022-10-14T22:13:48.227Z,15.40
2022-10-14T22:16:50.882Z,13.63
2022-10-14T22:19:53.331Z,15.40
2022-10-14T22:22:55.863Z,12.18
2022-10-14T22:26:01.562Z,18.35
2022-10-14T22:29:06.753Z,16.80
2022-10-14T22:32:09.192Z,14.40
2022-10-14T22:35:11.659Z,15.70
2022-10-14T22:38:14.077Z,16.65
2022-10-14T22:41:19.549Z,20.65
2022-10-14T22:44:22.002Z,15.15
2022-10-14T22:47:24.909Z,16.88
2022-10-14T22:50:27.715Z,16.67
2022-10-14T22:53:30.318Z,22.17
2022-10-14T22:56:34.333Z,17.55
2022-10-14T22:59:36.758Z,14.90
2022-10-14T23:02:39.246Z,21.38
2022-10-14T23:05:41.900Z,17.27
2022-10-14T23:08:44.691Z,16.98
2022-10-14T23:11:48.447Z,16.30
2022-10-14T23:14:51.359Z,16.10
2022-10-14T23:17:53.770Z,23.80
2022-10-14T23:20:56.776Z,19.35
2022-10-14T23:24:01.887Z,16.42
2022-10-14T23:27:05.630Z,17.58
2022-10-14T23:30:09.034Z,20.83
2022-10-14T23:33:11.816Z,19.60
2022-10-14T23:36:15.853Z,21.70
2022-10-14T23:39:18.303Z,21.75
2022-10-14T23:42:22.070Z,22.48
2022-10-14T23:45:24.610Z,19.50
2022-10-14T23:48:27.738Z,21.90
2022-10-14T23:51:30.985Z,22.52
2022-10-14T23:54:33.445Z,20.42
2022-10-14T23:57:37.201Z,23.38
